createdAt,value
2023-04-30T00:01:27.809Z,6.83
2023-04-30T00:03:54.781Z,7.33
2023-04-30T00:06:21.816Z,8.03
2023-04-30T00:08:48.740Z,7.07
2023-04-30T00:11:15.683Z,7.33
2023-04-30T00:13:44.116Z,6.87
2023-04-30T00:16:11.421Z,7.13
2023-04-30T00:18:38.751Z,7.57
2023-04-30T00:21:05.786Z,8.33
2023-04-30T00:23:32.646Z,7.90
2023-04-30T00:25:59.499Z,7.93
2023-04-30T00:28:26.486Z,7.63
2023-04-30T00:30:53.501Z,7.70
2023-04-30T00:33:20.438Z,7.73
2023-04-30T00:35:47.599Z,7.13
2023-04-30T00:38:15.543Z,7.80
2023-04-30T00:40:43.283Z,8.03
2023-04-30T00:43:10.210Z,8.10
2023-04-30T00:45:37.109Z,7.63
2023-04-30T00:48:04.265Z,8.47
2023-04-30T00:50:31.245Z,8.13
2023-04-30T00:52:59.622Z,8.93
2023-04-30T00:55:26.896Z,7.67
2023-04-30T00:57:54.318Z,8.10
2023-04-30T01:00:21.749Z,8.63
2023-04-30T01:02:48.735Z,8.63
2023-04-30T01:05:16.032Z,9.00
2023-04-30T01:07:45.375Z,9.70
2023-04-30T01:10:13.917Z,10.00
2023-04-30T01:13:14.777Z,9.30
2023-04-30T01:16:06.906Z,10.40
2023-04-30T01:18:57.386Z,9.37
2023-04-30T01:21:24.539Z,9.97
2023-04-30T01:24:16.066Z,10.33
2023-04-30T01:27:00.731Z,11.03
2023-04-30T01:29:27.848Z,11.00
2023-04-30T01:31:54.750Z,9.77
2023-04-30T01:34:21.674Z,9.10
2023-04-30T01:37:28.344Z,10.23
2023-04-30T01:40:00.964Z,10.60
2023-04-30T01:42:33.715Z,10.40
2023-04-30T01:45:36.941Z,10.20
2023-04-30T01:48:20.048Z,10.57
2023-04-30T01:51:19.996Z,10.03
2023-04-30T01:53:47.244Z,10.67
2023-04-30T01:56:21.949Z,10.30
2023-04-30T01:58:49.716Z,10.10
2023-04-30T02:01:32.616Z,10.97
2023-04-30T02:04:00.977Z,11.87
2023-04-30T02:06:31.399Z,10.77
2023-04-30T02:09:07.158Z,12.63
2023-04-30T02:11:34.072Z,12.10
2023-04-30T02:14:00.999Z,11.70
2023-04-30T02:16:27.932Z,13.63
2023-04-30T02:18:54.779Z,12.57
2023-04-30T02:21:21.677Z,13.30
2023-04-30T02:23:48.734Z,14.20
2023-04-30T02:26:15.673Z,12.67
2023-04-30T02:28:42.601Z,13.93
2023-04-30T02:31:09.693Z,14.33
2023-04-30T02:33:37.546Z,13.07
2023-04-30T02:36:04.683Z,14.27
2023-04-30T02:38:31.571Z,13.20
2023-04-30T02:40:58.419Z,12.10
2023-04-30T02:43:25.309Z,12.90
2023-04-30T02:45:52.264Z,13.23
2023-04-30T02:48:19.328Z,15.33
2023-04-30T02:50:46.287Z,14.00
2023-04-30T02:53:13.135Z,13.60
2023-04-30T02:55:40.063Z,16.17
2023-04-30T02:58:06.973Z,14.53
2023-04-30T03:00:34.070Z,14.53
2023-04-30T03:03:01.219Z,15.13
2023-04-30T03:05:28.846Z,17.23
2023-04-30T03:07:56.063Z,17.40
2023-04-30T03:10:22.946Z,16.40
2023-04-30T03:12:49.804Z,16.33
2023-04-30T03:15:16.761Z,16.47
2023-04-30T03:17:45.889Z,16.47
2023-04-30T03:20:14.019Z,17.50
2023-04-30T03:22:41.683Z,19.13
2023-04-30T03:25:09.273Z,17.60
2023-04-30T03:27:36.289Z,17.40
2023-04-30T03:30:03.184Z,18.80
2023-04-30T03:32:30.056Z,19.30
2023-04-30T03:34:57.241Z,19.10
2023-04-30T03:37:24.146Z,19.20
2023-04-30T03:39:51.056Z,18.83
2023-04-30T03:42:17.909Z,19.60
2023-04-30T03:44:44.916Z,18.97
2023-04-30T03:47:11.819Z,20.67
2023-04-30T03:49:39.072Z,17.87
2023-04-30T03:52:07.217Z,20.93
2023-04-30T03:54:34.138Z,20.03
2023-04-30T03:57:03.792Z,20.27
2023-04-30T03:59:32.015Z,20.07
2023-04-30T04:02:00.131Z,20.30
2023-04-30T04:04:27.212Z,21.43
2023-04-30T04:06:54.140Z,20.73
2023-04-30T04:09:21.025Z,20.67
2023-04-30T04:11:48.117Z,21.10
2023-04-30T04:14:15.054Z,20.43
2023-04-30T04:16:42.398Z,21.77
2023-04-30T04:19:09.474Z,21.47
2023-04-30T04:21:37.088Z,21.23
2023-04-30T04:24:08.432Z,21.85
2023-04-30T04:26:36.449Z,21.13
2023-04-30T04:29:04.592Z,22.40
2023-04-30T04:31:32.113Z,21.60
2023-04-30T04:34:00.336Z,21.60
2023-04-30T04:36:27.779Z,21.30
2023-04-30T04:38:55.866Z,21.13
2023-04-30T04:41:23.427Z,22.53
2023-04-30T04:43:50.677Z,21.07
2023-04-30T04:46:18.179Z,22.43
2023-04-30T04:48:45.090Z,20.67
2023-04-30T04:51:11.975Z,20.97
2023-04-30T04:53:41.285Z,20.40
2023-04-30T04:56:09.069Z,20.60
2023-04-30T04:58:36.146Z,19.10
2023-04-30T05:01:05.115Z,20.27
2023-04-30T05:03:32.643Z,22.73
2023-04-30T05:06:01.367Z,21.27
2023-04-30T05:08:28.236Z,20.40
2023-04-30T05:10:55.269Z,21.13
2023-04-30T05:13:22.186Z,20.90
2023-04-30T05:15:52.561Z,21.93
2023-04-30T05:18:20.245Z,22.30
2023-04-30T05:20:47.095Z,21.30
2023-04-30T05:23:13.924Z,21.30
2023-04-30T05:25:40.763Z,22.57
2023-04-30T05:28:07.913Z,22.93
2023-04-30T05:30:34.772Z,22.10
2023-04-30T05:33:01.642Z,22.67
2023-04-30T05:35:28.592Z,21.63
2023-04-30T05:37:55.586Z,21.97
2023-04-30T05:40:22.482Z,22.37
2023-04-30T05:42:49.346Z,21.17
2023-04-30T05:45:17.585Z,20.97
2023-04-30T05:47:44.591Z,20.93
2023-04-30T05:50:11.718Z,20.43
2023-04-30T05:52:38.736Z,20.80
2023-04-30T05:55:06.509Z,22.27
2023-04-30T05:57:33.415Z,22.33
2023-04-30T06:00:00.250Z,21.00
2023-04-30T06:02:27.145Z,19.70
2023-04-30T06:04:54.493Z,20.50
2023-04-30T06:07:21.330Z,20.90
2023-04-30T06:09:48.177Z,18.33
2023-04-30T06:12:15.087Z,20.13
2023-04-30T06:14:45.405Z,20.17
2023-04-30T06:17:13.434Z,18.57
2023-04-30T06:19:40.505Z,19.30
2023-04-30T06:22:07.454Z,19.57
2023-04-30T06:24:34.306Z,18.30
2023-04-30T06:27:01.551Z,19.53
2023-04-30T06:29:28.629Z,19.43
2023-04-30T06:31:55.986Z,19.93
2023-04-30T06:34:22.984Z,17.80
2023-04-30T06:36:50.121Z,18.47
2023-04-30T06:39:17.177Z,19.00
2023-04-30T06:41:44.184Z,17.73
2023-04-30T06:44:13.028Z,18.17
2023-04-30T06:46:40.412Z,19.07
2023-04-30T06:49:07.495Z,17.87
2023-04-30T06:51:34.418Z,17.37
2023-04-30T06:54:01.334Z,17.83
2023-04-30T06:56:28.439Z,18.50
2023-04-30T06:58:55.451Z,19.07
2023-04-30T07:01:22.388Z,19.00
2023-04-30T07:03:49.592Z,18.67
2023-04-30T07:06:16.668Z,18.97
2023-04-30T07:08:44.045Z,19.83
2023-04-30T07:11:11.339Z,17.83
2023-04-30T07:13:38.672Z,18.50
2023-04-30T07:16:06.374Z,18.30
2023-04-30T07:18:33.289Z,17.50
2023-04-30T07:21:00.157Z,16.47
2023-04-30T07:23:28.508Z,17.60
2023-04-30T07:25:57.532Z,19.60
2023-04-30T07:28:24.424Z,17.97
2023-04-30T07:30:51.434Z,17.53
2023-04-30T07:33:18.378Z,18.23
2023-04-30T07:35:45.457Z,18.37
2023-04-30T07:38:12.387Z,17.57
2023-04-30T07:40:39.260Z,17.87
2023-04-30T07:43:06.480Z,16.97
2023-04-30T07:45:35.040Z,16.80
2023-04-30T07:48:02.217Z,16.50
2023-04-30T07:50:33.722Z,18.90
2023-04-30T07:53:01.756Z,16.97
2023-04-30T07:55:28.727Z,17.47
2023-04-30T07:57:55.663Z,17.83
2023-04-30T08:00:22.842Z,17.73
2023-04-30T08:02:50.930Z,17.80
2023-04-30T08:05:18.067Z,17.67
2023-04-30T08:07:45.026Z,15.38
2023-04-30T08:10:12.671Z,15.93
2023-04-30T08:12:39.639Z,17.17
2023-04-30T08:15:07.703Z,16.48
2023-04-30T08:17:34.828Z,17.30
2023-04-30T08:20:03.129Z,17.65
2023-04-30T08:22:30.153Z,17.50
2023-04-30T08:24:57.136Z,16.33
2023-04-30T08:27:24.052Z,17.17
2023-04-30T08:29:50.941Z,17.45
2023-04-30T08:32:19.498Z,16.35
2023-04-30T08:34:46.563Z,15.90
2023-04-30T08:37:13.465Z,15.35
2023-04-30T08:39:40.586Z,16.15
2023-04-30T08:42:09.146Z,15.68
2023-04-30T08:44:39.796Z,14.63
2023-04-30T08:47:07.347Z,15.48
2023-04-30T08:49:34.191Z,16.65
2023-04-30T08:52:01.280Z,14.55
2023-04-30T08:54:29.306Z,13.82
2023-04-30T08:56:56.700Z,15.60
2023-04-30T08:59:23.617Z,15.82
2023-04-30T09:01:53.479Z,15.70
2023-04-30T09:04:20.970Z,15.27
2023-04-30T09:06:47.927Z,14.80
2023-04-30T09:09:16.153Z,16.00
2023-04-30T09:11:43.246Z,15.15
2023-04-30T09:14:10.432Z,15.65
2023-04-30T09:16:48.157Z,15.57
2023-04-30T09:19:25.391Z,14.98
2023-04-30T09:21:52.542Z,17.00
2023-04-30T09:24:21.418Z,18.83
2023-04-30T09:26:54.104Z,17.33
2023-04-30T09:29:23.122Z,17.52
2023-04-30T09:31:50.229Z,17.65
2023-04-30T09:34:17.230Z,18.30
2023-04-30T09:36:56.999Z,16.50
2023-04-30T09:39:24.981Z,16.77
2023-04-30T09:41:54.590Z,18.50
2023-04-30T09:44:28.530Z,18.35
2023-04-30T09:46:57.772Z,17.90
2023-04-30T09:49:24.908Z,18.27
2023-04-30T09:51:58.838Z,18.17
2023-04-30T09:54:29.835Z,18.30
2023-04-30T09:57:01.898Z,17.88
2023-04-30T09:59:35.214Z,18.05
2023-04-30T10:02:03.981Z,18.55
2023-04-30T10:04:32.598Z,19.00
2023-04-30T10:06:59.854Z,18.70
2023-04-30T10:09:32.877Z,19.42
2023-04-30T10:11:59.695Z,19.58
2023-04-30T10:14:26.733Z,19.13
2023-04-30T10:17:22.308Z,19.60
2023-04-30T10:19:49.839Z,18.70
2023-04-30T10:22:16.745Z,19.88
2023-04-30T10:24:44.891Z,18.83
2023-04-30T10:27:12.038Z,17.63
2023-04-30T10:29:39.005Z,18.23
2023-04-30T10:32:06.359Z,19.35
2023-04-30T10:34:42.629Z,19.33
2023-04-30T10:37:28.072Z,19.58
2023-04-30T10:39:55.796Z,19.60
2023-04-30T10:42:22.843Z,21.30
2023-04-30T10:44:49.873Z,20.80
2023-04-30T10:47:17.182Z,22.05
2023-04-30T10:49:50.450Z,21.83
2023-04-30T10:52:27.667Z,19.20
2023-04-30T10:54:54.736Z,18.13
2023-04-30T10:57:21.891Z,19.48
2023-04-30T10:59:53.758Z,19.70
2023-04-30T11:02:21.534Z,20.65
2023-04-30T11:05:07.563Z,20.70
2023-04-30T11:07:34.735Z,18.70
2023-04-30T11:10:03.912Z,15.80
2023-04-30T11:12:31.777Z,16.23
2023-04-30T11:15:02.085Z,14.48
2023-04-30T11:17:30.106Z,13.77
2023-04-30T11:20:00.772Z,12.98
2023-04-30T11:22:30.203Z,11.45
2023-04-30T11:24:59.857Z,10.30
2023-04-30T11:27:30.671Z,9.27
2023-04-30T11:29:58.305Z,10.05
2023-04-30T11:32:27.175Z,10.45
2023-04-30T11:34:55.359Z,10.85
2023-04-30T11:37:32.597Z,9.98
2023-04-30T11:40:04.677Z,12.02
2023-04-30T11:42:34.667Z,11.05
2023-04-30T11:45:09.170Z,12.32
2023-04-30T11:47:46.917Z,10.05
2023-04-30T11:50:15.356Z,10.00
2023-04-30T11:52:42.791Z,11.32
2023-04-30T11:55:16.935Z,10.05
2023-04-30T11:57:44.707Z,9.77
2023-04-30T12:00:15.904Z,10.40
2023-04-30T12:02:43.776Z,9.50
2023-04-30T12:05:20.217Z,9.23
2023-04-30T12:07:51.891Z,8.55
2023-04-30T12:10:22.295Z,7.68
2023-04-30T12:12:51.937Z,7.47
2023-04-30T12:15:23.428Z,5.00
2023-04-30T12:17:50.489Z,5.00
2023-04-30T12:20:18.706Z,5.25
2023-04-30T12:22:45.757Z,14.10
2023-04-30T12:25:14.491Z,15.30
2023-04-30T12:27:42.467Z,16.52
2023-04-30T12:30:09.969Z,16.38
2023-04-30T12:32:41.428Z,17.23
2023-04-30T12:35:09.197Z,17.73
2023-04-30T12:37:36.427Z,17.60
2023-04-30T12:40:03.423Z,16.98
2023-04-30T12:42:34.357Z,17.65
2023-04-30T12:45:01.388Z,14.40
2023-04-30T12:47:29.297Z,14.63
2023-04-30T12:49:56.782Z,12.27
2023-04-30T12:52:25.534Z,13.60
2023-04-30T12:54:52.557Z,12.18
2023-04-30T12:57:19.639Z,12.48
2023-04-30T12:59:52.939Z,13.27
2023-04-30T13:02:23.769Z,13.23
2023-04-30T13:04:51.189Z,13.55
2023-04-30T13:07:18.154Z,15.05
2023-04-30T13:09:45.082Z,13.95
2023-04-30T13:12:12.173Z,15.50
2023-04-30T13:14:39.038Z,15.35
2023-04-30T13:17:07.365Z,13.75
2023-04-30T13:19:35.294Z,15.00
2023-04-30T13:22:02.294Z,15.77
2023-04-30T13:24:31.141Z,16.25
2023-04-30T13:26:59.876Z,15.93
2023-04-30T13:29:26.872Z,15.98
2023-04-30T13:31:53.931Z,15.73
2023-04-30T13:34:21.238Z,15.63
2023-04-30T13:36:48.729Z,14.23
2023-04-30T13:39:15.814Z,13.65
2023-04-30T13:41:42.749Z,13.32
2023-04-30T13:44:10.065Z,12.57
2023-04-30T13:46:37.288Z,12.70
2023-04-30T13:49:04.432Z,13.05
2023-04-30T13:51:31.550Z,12.80
2023-04-30T13:53:58.509Z,13.60
2023-04-30T13:56:25.662Z,11.85
2023-04-30T13:58:52.538Z,11.75
2023-04-30T14:01:19.479Z,11.85
2023-04-30T14:03:47.783Z,12.40
2023-04-30T14:06:15.051Z,10.27
2023-04-30T14:08:43.073Z,11.68
2023-04-30T14:11:10.095Z,12.32
2023-04-30T14:13:36.939Z,10.98
2023-04-30T14:16:05.267Z,11.57
2023-04-30T14:18:32.624Z,9.93
2023-04-30T14:20:59.450Z,10.20
2023-04-30T14:23:26.354Z,11.77
2023-04-30T14:25:54.209Z,10.52
2023-04-30T14:28:21.105Z,10.80
2023-04-30T14:30:48.097Z,9.20
2023-04-30T14:33:15.123Z,10.57
2023-04-30T14:35:42.239Z,11.45
2023-04-30T14:38:09.159Z,11.23
2023-04-30T14:40:36.053Z,11.35
2023-04-30T14:43:02.940Z,13.45
2023-04-30T14:45:32.701Z,12.93
2023-04-30T14:47:59.756Z,11.60
2023-04-30T14:50:26.670Z,12.52
2023-04-30T14:52:53.521Z,12.88
2023-04-30T14:55:20.552Z,12.75
2023-04-30T14:57:47.401Z,11.93
2023-04-30T15:00:15.779Z,11.10
2023-04-30T15:02:42.779Z,10.77
2023-04-30T15:05:10.980Z,11.73
2023-04-30T15:07:37.845Z,11.32
2023-04-30T15:10:06.661Z,10.98
2023-04-30T15:12:34.526Z,11.50
2023-04-30T15:15:02.217Z,11.27
2023-04-30T15:17:29.453Z,11.95
2023-04-30T15:19:56.789Z,11.48
2023-04-30T15:22:24.176Z,12.02
2023-04-30T15:24:51.066Z,11.55
2023-04-30T15:27:18.549Z,11.63
2023-04-30T15:29:46.578Z,11.70
2023-04-30T15:32:17.220Z,11.27
2023-04-30T15:34:46.254Z,12.80
2023-04-30T15:37:13.110Z,11.95
2023-04-30T15:39:40.009Z,12.30
2023-04-30T15:42:06.950Z,12.63
2023-04-30T15:44:33.851Z,13.73
2023-04-30T15:47:02.117Z,13.43
2023-04-30T15:49:29.087Z,14.88
2023-04-30T15:51:55.960Z,14.32
2023-04-30T15:54:23.577Z,16.02
2023-04-30T15:56:51.555Z,15.15
2023-04-30T15:59:19.659Z,15.80
2023-04-30T16:01:46.898Z,16.15
2023-04-30T16:04:13.877Z,16.42
2023-04-30T16:06:40.836Z,15.88
2023-04-30T16:09:08.885Z,15.50
2023-04-30T16:11:36.187Z,15.05
2023-04-30T16:14:04.150Z,15.98
2023-04-30T16:16:31.054Z,15.63
2023-04-30T16:18:57.933Z,14.95
2023-04-30T16:21:24.888Z,15.07
2023-04-30T16:23:52.681Z,14.20
2023-04-30T16:26:19.655Z,14.48
2023-04-30T16:28:47.437Z,13.70
2023-04-30T16:31:15.677Z,12.32
2023-04-30T16:33:43.126Z,11.05
2023-04-30T16:36:11.122Z,11.73
2023-04-30T16:38:38.088Z,10.80
2023-04-30T16:41:05.047Z,12.55
2023-04-30T16:43:31.966Z,11.77
2023-04-30T16:45:58.884Z,11.20
2023-04-30T16:48:26.153Z,10.05
2023-04-30T16:50:53.027Z,9.40
2023-04-30T16:53:20.660Z,9.05
2023-04-30T16:55:47.604Z,8.70
2023-04-30T16:58:14.484Z,9.35
2023-04-30T17:00:41.336Z,9.18
2023-04-30T17:03:08.582Z,9.10
2023-04-30T17:05:35.674Z,8.68
2023-04-30T17:08:02.896Z,9.35
2023-04-30T17:10:32.506Z,8.38
2023-04-30T17:13:04.057Z,8.57
2023-04-30T17:15:31.212Z,8.35
2023-04-30T17:17:58.220Z,8.43
2023-04-30T17:20:25.172Z,9.70
2023-04-30T17:22:53.373Z,8.82
2023-04-30T17:25:20.345Z,8.52
2023-04-30T17:27:47.400Z,9.23
2023-04-30T17:30:15.111Z,8.15
2023-04-30T17:32:43.529Z,8.70
2023-04-30T17:35:10.959Z,8.90
2023-04-30T17:37:37.858Z,8.27
2023-04-30T17:40:05.535Z,7.35
2023-04-30T17:42:34.115Z,6.55
2023-04-30T17:45:00.950Z,7.43
2023-04-30T17:47:27.917Z,7.90
2023-04-30T17:49:55.174Z,8.70
2023-04-30T17:52:22.326Z,8.65
2023-04-30T17:54:49.208Z,8.27
2023-04-30T17:57:17.394Z,8.65
2023-04-30T17:59:45.289Z,8.45
2023-04-30T18:02:12.151Z,9.20
2023-04-30T18:04:39.068Z,8.95
2023-04-30T18:07:06.273Z,9.57
2023-04-30T18:09:33.196Z,9.30
2023-04-30T18:12:00.271Z,8.77
2023-04-30T18:14:27.401Z,8.93
2023-04-30T18:16:54.640Z,8.75
2023-04-30T18:19:21.712Z,9.30
2023-04-30T18:21:48.572Z,8.97
2023-04-30T18:24:15.513Z,8.87
2023-04-30T18:26:42.438Z,9.40
2023-04-30T18:29:09.478Z,8.37
2023-04-30T18:31:37.448Z,9.52
2023-04-30T18:34:04.789Z,9.77
2023-04-30T18:36:31.662Z,11.60
2023-04-30T18:38:58.591Z,10.88
2023-04-30T18:41:27.105Z,11.40
2023-04-30T18:43:53.959Z,12.80
2023-04-30T18:46:21.012Z,13.77
2023-04-30T18:48:47.971Z,14.43
2023-04-30T18:51:15.066Z,15.30
2023-04-30T18:53:45.182Z,15.60
2023-04-30T18:56:12.732Z,14.67
2023-04-30T18:58:39.659Z,14.77
2023-04-30T19:01:08.519Z,14.33
2023-04-30T19:03:35.740Z,16.13
2023-04-30T19:06:04.168Z,14.77
2023-04-30T19:08:31.173Z,15.03
2023-04-30T19:10:58.349Z,14.83
2023-04-30T19:13:36.870Z,14.30
2023-04-30T19:16:06.084Z,14.40
2023-04-30T19:18:35.227Z,14.53
2023-04-30T19:21:02.428Z,14.43
2023-04-30T19:23:30.796Z,16.67
2023-04-30T19:25:58.491Z,17.45
2023-04-30T19:28:25.522Z,16.30
2023-04-30T19:30:56.060Z,15.85
2023-04-30T19:33:23.735Z,15.37
2023-04-30T19:35:54.701Z,14.70
2023-04-30T19:38:21.941Z,14.10
2023-04-30T19:40:52.724Z,14.73
2023-04-30T19:43:22.742Z,13.93
2023-04-30T19:45:54.041Z,15.10
2023-04-30T19:48:24.284Z,14.13
2023-04-30T19:50:53.288Z,14.95
2023-04-30T19:53:21.483Z,14.33
2023-04-30T19:55:48.378Z,14.63
2023-04-30T19:58:15.384Z,15.17
2023-04-30T20:00:44.479Z,14.17
2023-04-30T20:03:11.741Z,13.90
2023-04-30T20:05:39.441Z,13.90
2023-04-30T20:08:07.187Z,13.90
2023-04-30T20:10:36.162Z,12.43
2023-04-30T20:13:03.795Z,12.87
2023-04-30T20:15:30.891Z,12.40
2023-04-30T20:17:58.438Z,12.83
2023-04-30T20:20:25.318Z,9.48
2023-04-30T20:22:53.823Z,11.70
2023-04-30T20:25:25.964Z,10.77
2023-04-30T20:27:52.901Z,11.37
2023-04-30T20:30:20.970Z,11.40
2023-04-30T20:32:48.112Z,10.83
2023-04-30T20:35:15.037Z,10.60
2023-04-30T20:37:42.169Z,11.33
2023-04-30T20:40:09.608Z,11.70
2023-04-30T20:42:36.637Z,11.13
2023-04-30T20:45:05.790Z,12.37
2023-04-30T20:47:32.898Z,10.73
2023-04-30T20:49:59.811Z,11.57
2023-04-30T20:52:26.670Z,12.40
2023-04-30T20:54:53.491Z,11.67
2023-04-30T20:57:20.559Z,11.07
2023-04-30T20:59:47.418Z,11.90
2023-04-30T21:02:15.672Z,10.43
2023-04-30T21:04:43.658Z,12.97
2023-04-30T21:07:10.517Z,12.50
2023-04-30T21:09:39.889Z,12.47
2023-04-30T21:12:06.728Z,13.07
2023-04-30T21:14:34.214Z,11.83
2023-04-30T21:17:01.397Z,12.40
2023-04-30T21:19:30.600Z,12.60
2023-04-30T21:21:57.582Z,12.70
2023-04-30T21:24:24.415Z,11.47
2023-04-30T21:26:52.395Z,13.03
2023-04-30T21:29:19.552Z,12.13
2023-04-30T21:31:46.442Z,11.80
2023-04-30T21:34:14.387Z,12.30
2023-04-30T21:36:42.236Z,11.40
2023-04-30T21:39:10.141Z,11.68
2023-04-30T21:41:39.019Z,10.93
2023-04-30T21:44:06.999Z,11.50
2023-04-30T21:46:34.131Z,10.50
2023-04-30T21:49:00.991Z,11.10
2023-04-30T21:51:29.020Z,10.23
2023-04-30T21:53:56.480Z,11.10
2023-04-30T21:56:23.335Z,10.17
2023-04-30T21:58:50.181Z,10.17
2023-04-30T22:01:18.051Z,10.57
2023-04-30T22:03:45.098Z,9.80
2023-04-30T22:06:12.111Z,10.23
2023-04-30T22:08:39.063Z,10.13
2023-04-30T22:11:06.262Z,10.82
2023-04-30T22:13:33.454Z,9.37
2023-04-30T22:16:01.481Z,10.27
2023-04-30T22:18:29.466Z,9.57
2023-04-30T22:20:56.440Z,9.02
2023-04-30T22:23:23.302Z,8.93
2023-04-30T22:25:50.625Z,9.37
2023-04-30T22:28:19.224Z,9.90
2023-04-30T22:30:46.216Z,8.75
2023-04-30T22:33:14.340Z,10.17
2023-04-30T22:35:41.263Z,9.63
2023-04-30T22:38:08.151Z,9.00
2023-04-30T22:40:35.588Z,8.27
2023-04-30T22:43:05.187Z,8.67
2023-04-30T22:45:36.937Z,8.20
2023-04-30T22:48:04.429Z,8.48
2023-04-30T22:50:31.832Z,7.93
2023-04-30T22:52:58.866Z,7.65
2023-04-30T22:55:26.951Z,7.00
2023-04-30T22:57:54.063Z,7.28
2023-04-30T23:00:21.240Z,6.50
2023-04-30T23:02:50.158Z,6.80
2023-04-30T23:05:17.363Z,6.45
2023-04-30T23:07:48.058Z,6.45
2023-04-30T23:10:15.819Z,7.05
2023-04-30T23:12:42.895Z,7.07
2023-04-30T23:15:09.992Z,6.90
2023-04-30T23:17:36.931Z,6.03
2023-04-30T23:20:04.454Z,5.93
2023-04-30T23:22:31.654Z,6.70
2023-04-30T23:24:58.512Z,6.60
2023-04-30T23:27:28.295Z,5.93
2023-04-30T23:29:56.146Z,5.88
2023-04-30T23:32:23.595Z,6.10
2023-04-30T23:34:50.553Z,6.32
2023-04-30T23:37:17.397Z,5.60
2023-04-30T23:39:44.317Z,6.05
2023-04-30T23:42:11.611Z,5.90
2023-04-30T23:44:38.644Z,6.20
2023-04-30T23:47:06.673Z,6.90
2023-04-30T23:49:33.581Z,6.23
2023-04-30T23:52:00.495Z,6.23
2023-04-30T23:54:27.665Z,6.20
2023-04-30T23:56:54.553Z,6.03
2023-04-30T23:59:24.780Z,6.63
